Time;durP1;ratioP1;P1;durP2;ratioP2;P2;SDS_P1;SDS_P2;PMS_P1;PMS_P2;Temp;Humidity;BMP_temperature;BMP_pressure;BME280_temperature;BME280_humidity;BME280_pressure;Samples;Min_cycle;Max_cycle;Signal;HPM_P1;HPM_P2
2021/12/08 00:00:31;;;;;;;1.60;1.40;;;5.60;98.20;;;;;;5048936;28;20527;-78
2021/12/08 00:02:58;;;;;;;1.60;1.30;;;5.60;98.20;;;;;;5035985;28;20480;-77
2021/12/08 00:05:26;;;;;;;1.60;1.30;;;5.60;98.20;;;;;;5046892;28;20466;-77
2021/12/08 00:07:53;;;;;;;1.60;1.40;;;5.60;98.20;;;;;;5036490;28;20569;-76
2021/12/08 00:10:51;;;;;;;1.60;1.30;;;5.50;98.20;;;;;;5047978;28;20495;-77
2021/12/08 00:13:15;;;;;;;1.60;1.50;;;5.50;98.20;;;;;;5012855;28;20470;-77
2021/12/08 00:15:47;;;;;;;1.60;1.40;;;5.50;98.20;;;;;;5047623;28;20484;-76
2021/12/08 00:18:16;;;;;;;1.60;1.40;;;5.40;98.20;;;;;;5013762;28;20490;-77
2021/12/08 00:20:46;;;;;;;1.60;1.30;;;5.40;98.20;;;;;;5042771;28;20470;-76
2021/12/08 00:23:15;;;;;;;1.60;1.30;;;5.40;98.20;;;;;;5035160;28;20470;-77
2021/12/08 00:25:42;;;;;;;1.60;1.30;;;5.30;98.20;;;;;;5042084;28;20502;-77
2021/12/08 00:28:09;;;;;;;2.93;2.63;;;5.30;98.20;;;;;;5037256;28;20493;-77
2021/12/08 00:30:39;;;;;;;1.60;1.30;;;5.30;98.20;;;;;;5049085;28;20970;-78
2021/12/08 00:33:08;;;;;;;1.60;1.40;;;5.30;98.20;;;;;;5014617;28;20574;-77
2021/12/08 00:35:37;;;;;;;1.60;1.43;;;5.30;98.20;;;;;;5046918;28;20486;-77
2021/12/08 00:38:05;;;;;;;1.63;1.40;;;5.30;98.20;;;;;;5023472;28;20483;-77
2021/12/08 00:40:32;;;;;;;1.70;1.60;;;5.30;98.20;;;;;;5049036;28;20462;-77
2021/12/08 00:42:59;;;;;;;1.60;1.30;;;5.30;98.20;;;;;;5034380;28;20557;-77
2021/12/08 00:45:29;;;;;;;1.60;1.40;;;5.30;98.20;;;;;;5046472;28;20458;-78
2021/12/08 00:47:57;;;;;;;1.60;1.33;;;5.40;98.20;;;;;;5023900;28;20491;-77
2021/12/08 00:50:30;;;;;;;1.63;1.40;;;5.40;98.20;;;;;;5043468;28;20549;-77
2021/12/08 00:52:57;;;;;;;1.60;1.30;;;5.40;98.20;;;;;;5034607;28;20479;-77
2021/12/08 00:55:26;;;;;;;1.60;1.40;;;5.30;98.20;;;;;;5042600;28;20493;-77
2021/12/08 00:57:53;;;;;;;1.60;1.40;;;5.30;98.20;;;;;;5032886;28;20485;-77
2021/12/08 01:00:24;;;;;;;1.60;1.30;;;5.30;98.20;;;;;;5045374;28;20466;-77
2021/12/08 01:02:51;;;;;;;1.60;1.40;;;5.40;98.20;;;;;;5022598;28;20571;-79
2021/12/08 01:05:22;;;;;;;1.63;1.43;;;5.40;98.20;;;;;;5042976;28;20465;-78
2021/12/08 01:07:51;;;;;;;1.60;1.30;;;5.40;98.20;;;;;;5018607;28;20864;-75
2021/12/08 01:10:21;;;;;;;1.60;1.30;;;5.40;98.20;;;;;;5045629;28;20469;-76
2021/12/08 01:12:49;;;;;;;1.60;1.40;;;5.40;98.20;;;;;;5025544;28;21069;-76
2021/12/08 01:15:16;;;;;;;1.60;1.30;;;5.50;98.20;;;;;;5043346;28;20549;-78
2021/12/08 01:17:43;;;;;;;1.60;1.30;;;5.50;98.20;;;;;;5024378;28;20562;-77
2021/12/08 01:20:14;;;;;;;1.60;1.30;;;5.50;98.20;;;;;;5041825;28;20458;-78
2021/12/08 01:22:42;;;;;;;1.60;1.30;;;5.50;98.20;;;;;;5037349;28;20494;-78
2021/12/08 01:25:10;;;;;;;1.60;1.30;;;5.50;98.20;;;;;;5043119;28;20941;-78
2021/12/08 01:27:38;;;;;;;1.60;1.30;;;5.50;98.20;;;;;;5035665;28;20570;-78
2021/12/08 01:30:07;;;;;;;1.60;1.40;;;5.50;98.20;;;;;;5045949;28;20494;-78
2021/12/08 01:32:34;;;;;;;1.60;1.30;;;5.60;98.20;;;;;;5037456;28;20500;-80
2021/12/08 01:35:01;;;;;;;1.60;1.30;;;5.60;98.20;;;;;;5047065;28;20482;-78
2021/12/08 01:37:28;;;;;;;1.60;1.33;;;5.60;98.20;;;;;;5035962;28;20993;-79
2021/12/08 01:39:55;;;;;;;1.60;1.40;;;5.60;98.20;;;;;;5043540;28;20459;-80
2021/12/08 01:42:29;;;;;;;1.60;1.30;;;5.60;98.20;;;;;;5028318;28;20528;-79
2021/12/08 01:47:41;;;;;;;1.60;1.30;;;5.70;98.20;;;;;;5037836;28;20488;-79
2021/12/08 01:50:10;;;;;;;1.60;1.40;;;5.80;98.20;;;;;;5043410;28;20470;-79
2021/12/08 01:52:38;;;;;;;1.60;1.40;;;5.80;98.20;;;;;;5037943;28;20887;-79
2021/12/08 01:55:07;;;;;;;2.10;1.90;;;5.80;98.20;;;;;;5042388;28;20494;-79
2021/12/08 01:57:35;;;;;;;4.23;3.93;;;5.80;98.20;;;;;;5027005;28;20512;-79
2021/12/08 02:00:02;;;;;;;1.60;1.40;;;5.80;98.20;;;;;;5045149;28;20469;-79
2021/12/08 02:02:29;;;;;;;1.60;1.30;;;5.80;98.20;;;;;;5035889;28;20486;-80
2021/12/08 02:04:56;;;;;;;1.60;1.40;;;5.80;98.20;;;;;;5045568;28;20447;-79
2021/12/08 02:07:22;;;;;;;1.70;1.60;;;5.80;98.20;;;;;;5037800;28;21091;-80
2021/12/08 02:09:49;;;;;;;1.63;1.40;;;5.80;98.20;;;;;;5047091;28;20458;-80
2021/12/08 02:12:16;;;;;;;1.60;1.30;;;5.80;98.20;;;;;;5036983;28;20574;-81
2021/12/08 02:14:44;;;;;;;1.60;1.33;;;5.80;98.20;;;;;;5046422;28;20486;-80
2021/12/08 02:17:12;;;;;;;1.60;1.30;;;5.80;98.20;;;;;;5037430;28;20490;-80
2021/12/08 02:19:39;;;;;;;1.70;1.43;;;5.80;98.20;;;;;;5049683;28;20505;-80
2021/12/08 02:22:07;;;;;;;1.60;1.30;;;5.70;98.20;;;;;;5036422;28;20508;-80
2021/12/08 02:24:34;;;;;;;1.60;1.30;;;5.70;98.20;;;;;;5042298;28;20523;-80
2021/12/08 02:27:01;;;;;;;1.60;1.30;;;5.70;98.20;;;;;;5030656;28;21025;-80
2021/12/08 02:32:26;;;;;;;1.60;1.30;;;5.70;98.20;;;;;;5028423;28;20466;-79
2021/12/08 02:48:38;;;;;;;1.60;1.30;;;5.70;98.20;;;;;;5044420;28;20885;-80
2021/12/08 02:51:05;;;;;;;1.60;1.40;;;5.70;98.20;;;;;;5034922;28;20469;-80
2021/12/08 02:53:34;;;;;;;1.60;1.40;;;5.70;98.20;;;;;;5045022;28;20458;-78
2021/12/08 02:56:01;;;;;;;1.60;1.30;;;5.70;98.20;;;;;;5030550;28;20483;-80
2021/12/08 02:58:28;;;;;;;1.60;1.40;;;5.70;98.20;;;;;;5039008;28;20645;-80
2021/12/08 03:00:58;;;;;;;1.60;1.30;;;5.70;98.20;;;;;;5037254;28;20481;-80
2021/12/08 03:03:25;;;;;;;1.60;1.30;;;5.70;98.20;;;;;;5034987;28;20854;-80
2021/12/08 03:05:52;;;;;;;1.60;1.33;;;5.70;98.20;;;;;;5037368;28;20557;-80
2021/12/08 03:08:19;;;;;;;1.60;1.40;;;5.70;98.20;;;;;;5046147;28;20877;-80
2021/12/08 03:10:51;;;;;;;1.60;1.40;;;5.80;98.20;;;;;;5045375;28;20446;-80
2021/12/08 03:13:18;;;;;;;1.70;1.50;;;5.80;98.20;;;;;;5018029;28;20895;-80
2021/12/08 03:15:46;;;;;;;1.60;1.40;;;5.80;98.20;;;;;;5047947;28;20482;-80
2021/12/08 03:18:13;;;;;;;1.60;1.30;;;5.80;98.20;;;;;;5018617;28;20909;-79
2021/12/08 03:20:41;;;;;;;1.60;1.30;;;5.80;98.20;;;;;;5053002;28;20454;-80
2021/12/08 03:23:11;;;;;;;2.27;2.07;;;5.80;98.20;;;;;;5029767;28;20486;-81
2021/12/08 03:25:41;;;;;;;1.60;1.40;;;5.80;98.20;;;;;;5051896;28;20459;-80
2021/12/08 03:28:16;;;;;;;1.60;1.37;;;5.80;98.20;;;;;;5021562;28;20475;-80
2021/12/08 03:30:56;;;;;;;1.60;1.40;;;5.90;98.20;;;;;;5049868;28;20461;-80
2021/12/08 03:33:23;;;;;;;1.60;1.30;;;5.90;98.20;;;;;;5020597;28;20487;-80
2021/12/08 03:35:50;;;;;;;1.60;1.30;;;6.00;98.20;;;;;;5037066;28;20489;-80
2021/12/08 03:38:17;;;;;;;1.60;1.40;;;6.00;98.20;;;;;;5044792;28;20553;-79
2021/12/08 03:40:45;;;;;;;1.60;1.30;;;6.00;98.20;;;;;;5044995;28;20493;-80
2021/12/08 03:43:14;;;;;;;1.60;1.30;;;6.10;98.20;;;;;;5034455;28;20497;-80
2021/12/08 03:45:46;;;;;;;1.67;1.40;;;6.10;98.20;;;;;;5051110;28;21207;-80
2021/12/08 03:48:16;;;;;;;1.60;1.33;;;6.10;98.20;;;;;;5018022;28;20517;-79
2021/12/08 03:50:44;;;;;;;1.60;1.30;;;6.00;98.20;;;;;;5050518;28;20508;-80
2021/12/08 03:53:15;;;;;;;1.60;1.30;;;6.00;98.20;;;;;;5026344;28;21124;-80
2021/12/08 03:55:45;;;;;;;1.60;1.40;;;6.00;98.20;;;;;;5044891;28;20525;-80
2021/12/08 03:58:14;;;;;;;1.60;1.30;;;6.00;98.20;;;;;;5018944;28;20486;-80
2021/12/08 04:00:42;;;;;;;1.60;1.40;;;6.00;98.20;;;;;;5049855;28;20536;-80
2021/12/08 04:03:11;;;;;;;1.60;1.30;;;6.00;98.20;;;;;;5022545;28;20480;-80
2021/12/08 04:05:46;;;;;;;1.60;1.30;;;6.00;98.20;;;;;;5048789;28;20474;-81
2021/12/08 04:08:20;;;;;;;1.60;1.30;;;6.00;98.20;;;;;;5021134;28;20482;-80
2021/12/08 04:10:50;;;;;;;1.60;1.30;;;6.00;98.20;;;;;;5047400;28;20810;-79
2021/12/08 04:13:23;;;;;;;1.60;1.30;;;6.10;98.20;;;;;;5047168;28;20516;-80
2021/12/08 04:15:50;;;;;;;1.60;1.33;;;6.00;98.20;;;;;;5038503;28;20482;-80
2021/12/08 04:18:17;;;;;;;1.60;1.40;;;6.00;98.20;;;;;;5048899;28;20501;-80
2021/12/08 04:20:49;;;;;;;1.60;1.30;;;6.00;98.20;;;;;;5051348;28;20526;-80
2021/12/08 04:23:19;;;;;;;1.60;1.30;;;6.00;98.20;;;;;;5017242;28;20498;-80
2021/12/08 04:25:50;;;;;;;1.60;1.30;;;6.00;98.20;;;;;;5043230;28;20458;-80
2021/12/08 04:28:21;;;;;;;1.60;1.30;;;6.00;98.20;;;;;;5021540;28;20505;-80
2021/12/08 04:30:52;;;;;;;1.60;1.30;;;6.00;98.20;;;;;;5040282;28;20458;-80
2021/12/08 04:33:20;;;;;;;1.60;1.30;;;6.10;98.20;;;;;;5046089;28;20478;-80
2021/12/08 04:35:49;;;;;;;1.60;1.40;;;6.10;98.20;;;;;;5044456;28;20580;-80
2021/12/08 04:38:21;;;;;;;1.60;1.30;;;6.10;98.20;;;;;;5019076;28;20928;-80
2021/12/08 04:41:00;;;;;;;1.60;1.40;;;6.10;98.20;;;;;;5045675;28;20454;-80
2021/12/08 04:43:34;;;;;;;1.60;1.30;;;6.10;98.20;;;;;;5033868;28;20477;-79
2021/12/08 04:46:12;;;;;;;1.60;1.30;;;6.20;98.20;;;;;;5036907;28;20482;-79
2021/12/08 04:49:00;;;;;;;1.60;1.30;;;6.30;98.20;;;;;;5049606;28;20841;-79
2021/12/08 04:51:41;;;;;;;1.60;1.30;;;6.30;98.20;;;;;;5037509;28;20482;-78
2021/12/08 05:03:03;;;;;;;1.60;1.40;;;6.30;98.20;;;;;;5033381;28;20485;-79
2021/12/08 05:05:49;;;;;;;1.60;1.30;;;6.30;98.20;;;;;;5046115;28;20477;-79
2021/12/08 05:08:20;;;;;;;1.60;1.33;;;6.40;98.20;;;;;;5020401;28;21012;-78
2021/12/08 05:10:49;;;;;;;1.60;1.30;;;6.40;98.20;;;;;;5047955;28;20461;-78
2021/12/08 05:13:17;;;;;;;1.60;1.30;;;6.30;98.20;;;;;;5012973;28;20481;-80
2021/12/08 05:15:50;;;;;;;1.70;1.40;;;6.30;98.20;;;;;;5047644;28;20513;-79
2021/12/08 05:18:19;;;;;;;1.60;1.30;;;6.20;98.20;;;;;;5011016;28;20480;-78
2021/12/08 05:20:52;;;;;;;1.60;1.30;;;6.20;98.20;;;;;;5027286;28;20465;-79
2021/12/08 05:23:24;;;;;;;1.60;1.50;;;6.10;98.20;;;;;;5017148;28;20480;-78
2021/12/08 05:25:53;;;;;;;1.60;1.20;;;6.00;98.20;;;;;;5030589;28;20461;-78
2021/12/08 05:28:24;;;;;;;1.60;1.30;;;6.00;98.20;;;;;;5046020;28;20458;-78
2021/12/08 05:30:56;;;;;;;1.67;1.40;;;5.90;98.20;;;;;;5034987;28;20462;-80
2021/12/08 05:33:24;;;;;;;1.60;1.30;;;5.90;98.20;;;;;;5043113;28;20473;-79
2021/12/08 05:35:52;;;;;;;1.60;1.30;;;5.90;98.20;;;;;;5027098;28;20482;-78
2021/12/08 05:38:20;;;;;;;1.60;1.30;;;5.80;98.20;;;;;;5025601;28;20454;-78
2021/12/08 05:40:52;;;;;;;1.60;1.40;;;5.80;98.20;;;;;;5036411;28;20462;-79
2021/12/08 05:43:20;;;;;;;1.60;1.30;;;5.70;98.20;;;;;;5024034;28;20490;-78
2021/12/08 05:45:49;;;;;;;1.60;1.40;;;5.70;98.20;;;;;;5040782;28;20516;-79
2021/12/08 05:48:19;;;;;;;1.60;1.43;;;5.70;98.20;;;;;;5036883;28;20466;-79
2021/12/08 05:50:51;;;;;;;1.60;1.30;;;5.60;98.20;;;;;;5046668;28;20462;-79
2021/12/08 05:53:18;;;;;;;1.60;1.30;;;5.60;98.20;;;;;;5014171;28;20475;-78
2021/12/08 05:55:46;;;;;;;1.60;1.40;;;5.60;98.20;;;;;;5038478;28;20540;-80
2021/12/08 05:58:14;;;;;;;1.60;1.30;;;5.60;98.20;;;;;;5014801;28;20533;-78
2021/12/08 06:00:45;;;;;;;1.60;1.40;;;5.60;98.20;;;;;;5046300;28;20454;-78
2021/12/08 06:03:13;;;;;;;1.60;1.37;;;5.60;98.20;;;;;;5010405;28;20499;-79
2021/12/08 06:05:44;;;;;;;1.60;1.30;;;5.60;98.20;;;;;;5044087;28;20533;-78
2021/12/08 06:08:11;;;;;;;1.60;1.30;;;5.60;98.20;;;;;;5019915;28;20481;-78
2021/12/08 06:10:40;;;;;;;1.60;1.50;;;5.70;98.20;;;;;;5043442;28;20469;-78
2021/12/08 06:13:09;;;;;;;1.60;1.30;;;5.70;98.20;;;;;;5033096;28;20546;-78
2021/12/08 06:15:37;;;;;;;1.60;1.30;;;5.80;98.20;;;;;;5042941;28;21127;-78
2021/12/08 06:18:07;;;;;;;1.63;1.40;;;5.80;98.20;;;;;;5034709;28;20482;-78
2021/12/08 06:20:34;;;;;;;1.60;1.30;;;5.80;98.20;;;;;;5044350;28;20972;-78
2021/12/08 06:23:04;;;;;;;1.60;1.30;;;5.80;98.20;;;;;;5018733;28;20482;-78
2021/12/08 06:25:31;;;;;;;1.60;1.30;;;5.80;98.20;;;;;;5041967;28;20461;-80
2021/12/08 06:27:58;;;;;;;1.60;1.30;;;5.80;98.20;;;;;;5019995;28;20491;-78
2021/12/08 06:30:28;;;;;;;1.60;1.40;;;5.80;98.20;;;;;;5041264;28;20467;-78
2021/12/08 06:32:55;;;;;;;1.60;1.40;;;5.80;98.20;;;;;;5032583;28;20557;-78
2021/12/08 06:35:26;;;;;;;1.60;1.30;;;5.80;98.20;;;;;;5047126;28;20462;-78
2021/12/08 06:37:53;;;;;;;1.67;1.40;;;5.80;98.20;;;;;;5021397;28;20558;-78
2021/12/08 06:40:28;;;;;;;1.60;1.30;;;5.90;98.20;;;;;;5042945;28;20470;-78
2021/12/08 06:43:00;;;;;;;1.63;1.37;;;5.90;98.20;;;;;;5008940;28;20471;-78
2021/12/08 06:45:31;;;;;;;1.60;1.30;;;5.90;98.20;;;;;;5040857;28;20472;-77
2021/12/08 06:48:01;;;;;;;1.60;1.30;;;5.90;98.20;;;;;;5021882;28;20484;-79
2021/12/08 06:50:34;;;;;;;1.60;1.40;;;5.90;98.20;;;;;;5042174;28;20549;-77
2021/12/08 06:53:02;;;;;;;1.60;1.30;;;5.90;98.20;;;;;;5020751;28;20537;-77
2021/12/08 06:55:33;;;;;;;1.60;1.30;;;5.90;98.20;;;;;;5040309;28;20472;-77
2021/12/08 06:58:07;;;;;;;1.60;1.30;;;5.80;98.20;;;;;;5033584;28;20486;-78
2021/12/08 07:00:49;;;;;;;1.60;1.40;;;5.80;98.20;;;;;;5039057;28;20554;-77
2021/12/08 07:03:32;;;;;;;1.60;1.30;;;5.80;98.20;;;;;;5015077;28;20572;-77
2021/12/08 07:06:11;;;;;;;1.67;1.30;;;5.80;98.20;;;;;;5029161;28;20479;-77
2021/12/08 07:08:47;;;;;;;1.60;1.30;;;5.80;98.20;;;;;;5031345;28;20466;-77
2021/12/08 07:11:18;;;;;;;1.60;1.40;;;5.80;98.20;;;;;;5029824;28;20510;-77
2021/12/08 07:13:46;;;;;;;1.60;1.40;;;5.70;98.20;;;;;;5038451;28;20546;-77
2021/12/08 07:16:17;;;;;;;1.60;1.40;;;5.70;98.20;;;;;;5033345;28;20483;-77
2021/12/08 07:18:53;;;;;;;1.60;1.40;;;5.70;98.20;;;;;;5045001;28;20465;-77
2021/12/08 07:21:23;;;;;;;1.60;1.30;;;5.70;98.20;;;;;;5030278;28;20569;-76
2021/12/08 07:23:54;;;;;;;1.60;1.30;;;5.60;98.20;;;;;;5043119;28;20465;-77
2021/12/08 07:26:27;;;;;;;1.67;1.40;;;5.60;98.20;;;;;;5024263;28;20490;-77
2021/12/08 07:28:57;;;;;;;1.60;1.30;;;5.60;98.20;;;;;;5038946;28;20983;-77
2021/12/08 07:31:28;;;;;;;1.60;1.30;;;5.60;98.20;;;;;;5031389;28;20520;-77
2021/12/08 07:34:02;;;;;;;1.60;1.40;;;5.60;98.20;;;;;;5041160;28;20462;-78
2021/12/08 07:36:30;;;;;;;1.60;1.30;;;5.60;98.20;;;;;;5028605;28;20479;-76
2021/12/08 07:38:59;;;;;;;1.60;1.30;;;5.60;98.20;;;;;;5034741;28;20989;-77
2021/12/08 07:41:31;;;;;;;1.60;1.30;;;5.60;98.20;;;;;;5028843;28;20486;-77
2021/12/08 07:44:01;;;;;;;1.60;1.30;;;5.60;98.20;;;;;;5039464;28;20575;-77
2021/12/08 07:46:32;;;;;;;1.60;1.30;;;5.60;98.20;;;;;;5024513;28;20494;-76
2021/12/08 07:49:03;;;;;;;1.60;1.40;;;5.60;98.20;;;;;;5037461;28;20994;-76
2021/12/08 07:51:35;;;;;;;1.70;1.43;;;5.60;98.20;;;;;;5031439;28;21068;-75
2021/12/08 07:54:03;;;;;;;1.60;1.40;;;5.60;98.20;;;;;;5040499;28;20982;-74
2021/12/08 07:56:33;;;;;;;3.60;3.30;;;5.60;98.20;;;;;;5025774;28;20625;-75
2021/12/08 07:59:03;;;;;;;1.60;1.40;;;5.60;98.20;;;;;;5037880;28;20458;-74
2021/12/08 08:01:33;;;;;;;1.60;1.40;;;5.60;98.20;;;;;;5028086;28;20498;-74
2021/12/08 08:04:07;;;;;;;1.60;1.30;;;5.60;98.20;;;;;;5038155;28;20545;-74
2021/12/08 08:06:38;;;;;;;1.60;1.40;;;5.60;98.20;;;;;;5033174;28;20489;-74
2021/12/08 08:09:12;;;;;;;1.60;1.30;;;5.60;98.20;;;;;;5040712;28;20960;-75
2021/12/08 08:11:43;;;;;;;1.60;1.40;;;5.60;98.20;;;;;;5025937;28;20566;-75
2021/12/08 08:14:14;;;;;;;1.60;1.40;;;5.60;98.20;;;;;;5033624;28;20458;-74
2021/12/08 08:16:44;;;;;;;1.60;1.40;;;5.60;98.20;;;;;;5032922;28;20910;-75
2021/12/08 08:19:17;;;;;;;1.60;1.40;;;5.70;98.20;;;;;;5043037;28;20462;-74
2021/12/08 08:21:48;;;;;;;1.60;1.40;;;5.70;98.20;;;;;;5026859;28;21223;-74
2021/12/08 08:24:17;;;;;;;1.60;1.40;;;5.70;98.20;;;;;;5027063;28;20811;-74
2021/12/08 08:26:59;;;;;;;1.60;1.37;;;5.70;98.20;;;;;;5031733;28;20802;-75
2021/12/08 08:29:27;;;;;;;1.60;1.30;;;5.80;98.20;;;;;;5042458;28;20577;-74
2021/12/08 08:31:59;;;;;;;1.70;1.40;;;5.80;98.20;;;;;;5032136;28;20901;-74
2021/12/08 08:34:30;;;;;;;1.60;1.40;;;5.80;98.20;;;;;;5044869;28;20467;-74
2021/12/08 08:36:57;;;;;;;1.60;1.40;;;5.80;98.20;;;;;;5034680;28;20489;-74
2021/12/08 08:39:27;;;;;;;1.60;1.37;;;5.80;98.20;;;;;;5039966;28;20462;-75
2021/12/08 08:42:01;;;;;;;1.60;1.30;;;5.80;98.20;;;;;;5028182;28;20482;-76
2021/12/08 08:44:31;;;;;;;1.60;1.30;;;5.90;98.20;;;;;;5038519;28;20592;-76
2021/12/08 08:47:05;;;;;;;1.63;1.30;;;5.90;98.20;;;;;;5020159;28;20486;-76
2021/12/08 08:49:35;;;;;;;1.60;1.33;;;5.90;98.20;;;;;;5040877;28;20477;-76
2021/12/08 08:52:09;;;;;;;1.60;1.30;;;5.90;98.20;;;;;;5024913;28;20537;-75
2021/12/08 08:54:45;;;;;;;1.60;1.30;;;6.00;98.20;;;;;;5040275;28;20469;-76
2021/12/08 08:57:17;;;;;;;1.60;1.40;;;6.00;98.20;;;;;;5029275;28;20603;-76
2021/12/08 08:59:48;;;;;;;1.60;1.30;;;6.00;98.20;;;;;;5042922;28;20529;-76
2021/12/08 09:02:19;;;;;;;1.60;1.27;;;6.00;98.20;;;;;;5029379;28;20532;-76
2021/12/08 09:04:49;;;;;;;1.60;1.30;;;6.00;98.20;;;;;;5041371;28;20462;-76
2021/12/08 09:07:22;;;;;;;1.60;1.30;;;6.00;98.20;;;;;;5031691;28;20501;-76
2021/12/08 09:09:50;;;;;;;1.60;1.30;;;6.00;98.20;;;;;;5040413;28;20470;-76
2021/12/08 09:12:23;;;;;;;1.63;1.40;;;6.00;98.20;;;;;;5017578;28;20475;-76
2021/12/08 09:14:55;;;;;;;1.60;1.30;;;6.00;98.20;;;;;;5037918;28;20461;-76
2021/12/08 09:17:26;;;;;;;1.60;1.30;;;6.00;98.20;;;;;;5032558;28;21082;-74
2021/12/08 09:20:02;;;;;;;2.53;2.33;;;6.10;98.20;;;;;;5042179;28;20477;-75
2021/12/08 09:22:33;;;;;;;1.60;1.30;;;6.10;98.20;;;;;;5024142;28;20482;-77
2021/12/08 09:25:08;;;;;;;1.60;1.30;;;6.10;98.20;;;;;;5039478;28;20459;-76
2021/12/08 09:27:40;;;;;;;1.60;1.40;;;6.20;98.20;;;;;;5030562;28;20485;-75
2021/12/08 09:30:10;;;;;;;1.60;1.30;;;6.20;98.20;;;;;;5039790;28;20458;-76
2021/12/08 09:32:42;;;;;;;1.70;1.40;;;6.20;98.20;;;;;;5029099;28;20897;-75
2021/12/08 09:35:14;;;;;;;1.60;1.30;;;6.30;98.20;;;;;;5042781;28;20556;-76
2021/12/08 09:37:45;;;;;;;1.60;1.30;;;6.40;98.20;;;;;;5032054;28;20588;-75
2021/12/08 09:40:16;;;;;;;1.60;1.30;;;6.40;98.20;;;;;;5036247;28;20477;-75
2021/12/08 09:42:48;;;;;;;1.70;1.50;;;6.50;98.20;;;;;;5018929;28;20491;-75
2021/12/08 09:45:19;;;;;;;1.67;1.30;;;6.50;98.20;;;;;;5042909;28;20549;-76
2021/12/08 09:47:46;;;;;;;1.60;1.30;;;6.60;98.20;;;;;;5019992;28;20574;-76
2021/12/08 09:50:16;;;;;;;1.60;1.30;;;6.70;98.20;;;;;;5040800;28;21051;-76
2021/12/08 09:52:46;;;;;;;1.60;1.30;;;6.70;98.20;;;;;;5017607;28;20487;-76
2021/12/08 09:55:16;;;;;;;1.60;1.30;;;6.70;98.20;;;;;;5040961;28;20583;-75
2021/12/08 09:57:45;;;;;;;1.60;1.20;;;6.80;98.20;;;;;;5029730;28;20504;-75
2021/12/08 10:00:19;;;;;;;1.60;1.30;;;6.80;98.20;;;;;;5043164;28;20473;-75
2021/12/08 10:02:46;;;;;;;1.60;1.30;;;6.80;98.20;;;;;;5030207;28;20486;-75
2021/12/08 10:05:16;;;;;;;1.60;1.40;;;6.90;98.20;;;;;;5042852;28;20569;-76
2021/12/08 10:07:44;;;;;;;1.60;1.20;;;6.90;98.20;;;;;;5031700;28;20601;-75
2021/12/08 10:10:14;;;;;;;1.60;1.30;;;7.00;98.20;;;;;;5044025;28;20524;-75
2021/12/08 10:12:41;;;;;;;1.60;1.30;;;7.00;98.20;;;;;;5014058;28;21007;-75
2021/12/08 10:15:14;;;;;;;1.60;1.20;;;7.00;98.20;;;;;;5035516;28;20465;-76
2021/12/08 10:17:42;;;;;;;1.60;1.30;;;7.00;98.20;;;;;;5030526;28;20488;-76
2021/12/08 10:20:15;;;;;;;1.60;1.30;;;7.10;98.20;;;;;;5041962;28;20480;-76
2021/12/08 10:22:44;;;;;;;1.60;1.30;;;7.10;98.20;;;;;;5030460;28;20485;-76
2021/12/08 10:25:15;;;;;;;1.70;1.40;;;7.10;98.20;;;;;;5037121;28;20538;-76
2021/12/08 10:28:05;;;;;;;1.60;1.30;;;7.10;98.20;;;;;;5027618;28;20891;-76
2021/12/08 10:30:41;;;;;;;1.60;1.30;;;7.20;98.20;;;;;;5040376;28;20455;-76
2021/12/08 10:33:36;;;;;;;1.60;1.30;;;7.20;98.20;;;;;;5011165;28;20489;-76
2021/12/08 10:36:18;;;;;;;1.60;1.20;;;7.20;98.20;;;;;;5026209;28;20478;-76
2021/12/08 10:38:45;;;;;;;1.70;1.50;;;7.30;98.20;;;;;;5032976;28;21033;-76
2021/12/08 10:41:12;;;;;;;1.60;1.20;;;7.30;98.20;;;;;;5027543;28;20607;-76
2021/12/08 10:43:39;;;;;;;1.60;1.40;;;7.30;98.20;;;;;;5039909;28;21020;-76
2021/12/08 10:46:11;;;;;;;1.60;1.20;;;7.30;98.20;;;;;;5028865;28;20517;-76
2021/12/08 10:48:44;;;;;;;1.60;1.30;;;7.30;98.20;;;;;;5041390;28;20832;-76
2021/12/08 10:54:30;;;;;;;1.60;1.20;;;7.40;98.20;;;;;;5038336;28;20541;-76
2021/12/08 10:56:58;;;;;;;1.60;1.30;;;7.40;98.20;;;;;;5027916;28;20489;-76
2021/12/08 10:59:27;;;;;;;1.67;1.30;;;7.50;98.20;;;;;;5041253;28;20466;-76
2021/12/08 11:01:59;;;;;;;1.60;1.30;;;7.40;98.20;;;;;;5029371;28;20491;-76
2021/12/08 11:04:32;;;;;;;1.60;1.30;;;7.40;98.20;;;;;;5040091;28;20466;-76
2021/12/08 11:07:07;;;;;;;1.60;1.30;;;7.40;98.20;;;;;;5015435;28;20482;-76
2021/12/08 11:09:43;;;;;;;1.93;1.70;;;7.50;98.20;;;;;;5016042;28;20471;-76
2021/12/08 11:12:11;;;;;;;1.60;1.23;;;7.50;98.20;;;;;;5007135;28;20482;-75
2021/12/08 11:14:46;;;;;;;1.60;1.20;;;7.50;98.20;;;;;;5017007;28;20467;-75
2021/12/08 11:17:29;;;;;;;1.67;1.40;;;7.50;98.20;;;;;;5021980;28;20481;-75
2021/12/08 11:20:18;;;;;;;1.60;1.30;;;7.50;98.20;;;;;;5021759;28;20562;-75
2021/12/08 11:22:59;;;;;;;1.60;1.20;;;7.50;98.20;;;;;;5002730;28;21015;-75
2021/12/08 11:25:35;;;;;;;1.60;1.30;;;7.60;98.20;;;;;;5013619;28;20467;-75
2021/12/08 11:28:35;;;;;;;1.60;1.30;;;7.60;98.20;;;;;;5023164;28;20486;-75
2021/12/08 11:31:09;;;;;;;1.63;1.40;;;7.60;98.20;;;;;;5008812;28;20570;-76
2021/12/08 11:33:43;;;;;;;1.63;1.30;;;7.60;98.20;;;;;;5028667;28;20554;-74
2021/12/08 11:36:13;;;;;;;1.60;1.20;;;7.70;98.20;;;;;;5007920;28;20492;-74
2021/12/08 11:38:42;;;;;;;1.63;1.30;;;7.70;98.20;;;;;;5030467;28;20494;-73
2021/12/08 11:41:34;;;;;;;1.60;1.20;;;7.70;98.20;;;;;;5007282;28;20496;-74
2021/12/08 11:44:04;;;;;;;1.60;1.20;;;7.70;98.20;;;;;;5030483;28;20975;-74
2021/12/08 11:46:38;;;;;;;1.60;1.20;;;7.70;98.20;;;;;;5015890;28;20490;-73
2021/12/08 11:49:08;;;;;;;1.60;1.20;;;7.80;98.20;;;;;;5031878;28;20778;-74
2021/12/08 11:51:53;;;;;;;1.63;1.30;;;7.80;98.20;;;;;;5012283;28;20480;-73
2021/12/08 11:54:29;;;;;;;1.60;1.30;;;7.90;98.20;;;;;;5019644;28;20476;-74
2021/12/08 11:57:12;;;;;;;1.60;1.20;;;7.80;98.20;;;;;;5013865;28;20619;-74
2021/12/08 11:59:55;;;;;;;1.60;1.20;;;7.90;98.20;;;;;;5025572;28;20475;-73
2021/12/08 12:02:24;;;;;;;1.60;1.20;;;7.90;98.20;;;;;;5026506;28;20489;-73
2021/12/08 12:04:53;;;;;;;1.70;1.40;;;7.90;98.20;;;;;;5021701;28;20473;-73
2021/12/08 12:07:21;;;;;;;1.60;1.30;;;7.90;98.20;;;;;;5026979;28;20513;-73
2021/12/08 12:09:49;;;;;;;1.60;1.20;;;7.90;98.20;;;;;;5019085;28;20478;-73
2021/12/08 12:12:18;;;;;;;1.60;1.30;;;7.80;98.20;;;;;;5021407;28;20494;-73
2021/12/08 12:14:47;;;;;;;1.60;1.30;;;7.80;98.20;;;;;;5021475;28;20474;-73
2021/12/08 12:17:15;;;;;;;1.60;1.20;;;7.80;98.20;;;;;;5022151;28;20489;-73
2021/12/08 12:19:49;;;;;;;1.60;1.27;;;7.80;98.20;;;;;;5027442;28;20463;-74
2021/12/08 12:22:43;;;;;;;1.60;1.20;;;7.80;98.20;;;;;;5017226;28;20486;-73
2021/12/08 12:25:32;;;;;;;1.60;1.20;;;7.80;98.20;;;;;;5016947;28;20467;-75
2021/12/08 12:28:43;;;;;;;1.60;1.30;;;7.90;98.20;;;;;;5028235;28;20485;-75
2021/12/08 12:31:19;;;;;;;1.60;1.20;;;7.90;98.20;;;;;;5015556;28;20482;-75
2021/12/08 12:33:50;;;;;;;1.60;1.20;;;7.90;98.20;;;;;;5032988;28;20478;-76
2021/12/08 12:36:23;;;;;;;1.60;1.30;;;7.90;98.20;;;;;;5014811;28;20486;-75
2021/12/08 12:38:52;;;;;;;1.60;1.30;;;7.90;98.20;;;;;;5027900;28;20581;-75
2021/12/08 12:41:29;;;;;;;1.60;1.30;;;7.90;98.20;;;;;;5011269;28;21069;-75
2021/12/08 12:44:19;;;;;;;1.60;1.30;;;7.90;98.20;;;;;;5029120;28;21029;-74
2021/12/08 12:47:27;;;;;;;1.60;1.30;;;7.90;98.20;;;;;;5021319;28;20490;-75
2021/12/08 12:50:25;;;;;;;1.60;1.23;;;8.00;98.20;;;;;;5023907;28;20471;-75
2021/12/08 12:52:55;;;;;;;1.60;1.20;;;8.00;98.20;;;;;;4951384;28;20495;-75
2021/12/08 12:55:27;;;;;;;1.60;1.20;;;8.00;98.20;;;;;;5003702;28;20551;-75
2021/12/08 12:58:24;;;;;;;1.60;1.30;;;8.00;98.20;;;;;;5025590;28;20624;-75
2021/12/08 13:01:06;;;;;;;1.60;1.30;;;7.90;98.20;;;;;;4935169;28;20477;-75
2021/12/08 13:03:54;;;;;;;1.63;1.30;;;7.90;98.20;;;;;;5022761;28;20506;-75
2021/12/08 13:06:45;;;;;;;1.60;1.30;;;7.90;98.20;;;;;;5017264;28;20490;-75
2021/12/08 13:09:43;;;;;;;1.60;1.20;;;7.90;98.20;;;;;;5027001;28;20647;-75
2021/12/08 13:12:14;;;;;;;1.60;1.20;;;7.90;98.20;;;;;;5015777;28;20594;-75
2021/12/08 13:14:42;;;;;;;1.60;1.20;;;7.90;98.20;;;;;;5023542;28;20486;-76
2021/12/08 13:17:18;;;;;;;1.60;1.20;;;7.90;98.20;;;;;;5023557;28;20479;-76
2021/12/08 13:19:47;;;;;;;1.60;1.20;;;7.90;98.20;;;;;;5021629;28;20472;-75
2021/12/08 13:22:51;;;;;;;1.60;1.20;;;7.90;98.20;;;;;;5019199;28;20505;-75
2021/12/08 13:25:47;;;;;;;1.60;1.20;;;7.80;98.20;;;;;;5015668;28;20481;-75
2021/12/08 13:28:21;;;;;;;1.60;1.20;;;7.80;98.20;;;;;;5025449;28;20478;-76
2021/12/08 13:30:56;;;;;;;1.60;1.20;;;7.80;98.20;;;;;;5029203;28;20553;-76
2021/12/08 13:33:42;;;;;;;1.60;1.30;;;7.80;98.20;;;;;;5031004;28;20815;-76
2021/12/08 13:36:43;;;;;;;1.60;1.20;;;7.80;98.20;;;;;;5018046;28;22172;-75
2021/12/08 13:39:26;;;;;;;1.60;1.30;;;7.90;98.20;;;;;;4942108;28;20553;-72
2021/12/08 13:41:57;;;;;;;1.60;1.30;;;7.90;98.20;;;;;;4939118;28;20477;-73
2021/12/08 13:44:32;;;;;;;1.60;1.27;;;7.90;98.20;;;;;;5006237;28;20954;-73
2021/12/08 13:47:01;;;;;;;1.60;1.30;;;7.80;98.20;;;;;;5017153;28;20483;-72
2021/12/08 13:49:31;;;;;;;1.60;1.30;;;7.80;98.20;;;;;;5021089;28;20463;-72
2021/12/08 13:52:18;;;;;;;1.60;1.30;;;7.80;98.20;;;;;;5018069;28;20525;-73
2021/12/08 13:54:47;;;;;;;1.60;1.30;;;7.80;98.20;;;;;;5037629;28;20469;-72